sensor_id;sensor_type;location;lat;lon;timestamp;P1;durP1;ratioP1;P2;durP2;ratioP2
44606;SDS011;30315;46.072;14.474;2022-08-07T00:01:15;1.38;;;0.98;;
44606;SDS011;30315;46.072;14.474;2022-08-07T00:04:04;1.13;;;1.13;;
44606;SDS011;30315;46.072;14.474;2022-08-07T00:06:35;0.95;;;0.90;;
44606;SDS011;30315;46.072;14.474;2022-08-07T00:09:10;1.00;;;1.00;;
44606;SDS011;30315;46.072;14.474;2022-08-07T00:11:43;1.15;;;1.15;;
44606;SDS011;30315;46.072;14.474;2022-08-07T00:14:22;1.88;;;1.15;;
44606;SDS011;30315;46.072;14.474;2022-08-07T00:16:55;0.90;;;0.90;;
44606;SDS011;30315;46.072;14.474;2022-08-07T00:19:23;1.20;;;1.10;;
44606;SDS011;30315;46.072;14.474;2022-08-07T00:21:59;0.82;;;0.82;;
44606;SDS011;30315;46.072;14.474;2022-08-07T00:24:28;1.17;;;1.17;;
44606;SDS011;30315;46.072;14.474;2022-08-07T00:26:57;1.30;;;1.20;;
44606;SDS011;30315;46.072;14.474;2022-08-07T00:29:31;1.38;;;1.27;;
44606;SDS011;30315;46.072;14.474;2022-08-07T00:32:03;1.67;;;1.25;;
44606;SDS011;30315;46.072;14.474;2022-08-07T00:34:32;1.20;;;1.10;;
44606;SDS011;30315;46.072;14.474;2022-08-07T00:37:01;1.38;;;1.27;;
44606;SDS011;30315;46.072;14.474;2022-08-07T00:39:31;1.40;;;1.30;;
44606;SDS011;30315;46.072;14.474;2022-08-07T00:41:59;1.00;;;1.00;;
44606;SDS011;30315;46.072;14.474;2022-08-07T00:44:32;2.50;;;1.23;;
44606;SDS011;30315;46.072;14.474;2022-08-07T00:47:03;1.20;;;1.20;;
44606;SDS011;30315;46.072;14.474;2022-08-07T00:49:51;1.80;;;1.13;;
44606;SDS011;30315;46.072;14.474;2022-08-07T00:52:38;3.28;;;1.20;;
44606;SDS011;30315;46.072;14.474;2022-08-07T00:55:07;1.30;;;1.20;;
44606;SDS011;30315;46.072;14.474;2022-08-07T00:57:36;1.50;;;1.40;;
44606;SDS011;30315;46.072;14.474;2022-08-07T01:00:20;1.45;;;1.35;;
44606;SDS011;30315;46.072;14.474;2022-08-07T01:02:48;1.30;;;1.30;;
44606;SDS011;30315;46.072;14.474;2022-08-07T01:05:16;1.17;;;1.13;;
44606;SDS011;30315;46.072;14.474;2022-08-07T01:07:49;1.65;;;1.55;;
44606;SDS011;30315;46.072;14.474;2022-08-07T01:10:17;1.23;;;1.23;;
44606;SDS011;30315;46.072;14.474;2022-08-07T01:12:46;1.13;;;1.13;;
44606;SDS011;30315;46.072;14.474;2022-08-07T01:15:22;1.40;;;1.30;;
44606;SDS011;30315;46.072;14.474;2022-08-07T01:18:10;1.17;;;1.17;;
44606;SDS011;30315;46.072;14.474;2022-08-07T01:20:53;1.60;;;1.50;;
44606;SDS011;30315;46.072;14.474;2022-08-07T01:23:50;1.67;;;1.58;;
44606;SDS011;30315;46.072;14.474;2022-08-07T01:26:17;1.48;;;1.38;;
44606;SDS011;30315;46.072;14.474;2022-08-07T01:28:48;1.38;;;1.30;;
44606;SDS011;30315;46.072;14.474;2022-08-07T01:31:28;3.53;;;1.30;;
44606;SDS011;30315;46.072;14.474;2022-08-07T01:34:10;1.20;;;1.20;;
44606;SDS011;30315;46.072;14.474;2022-08-07T01:36:40;1.60;;;1.50;;
44606;SDS011;30315;46.072;14.474;2022-08-07T01:39:16;1.50;;;1.40;;
44606;SDS011;30315;46.072;14.474;2022-08-07T01:42:01;1.10;;;1.10;;
44606;SDS011;30315;46.072;14.474;2022-08-07T01:44:48;1.60;;;1.48;;
44606;SDS011;30315;46.072;14.474;2022-08-07T01:47:15;1.30;;;1.30;;
44606;SDS011;30315;46.072;14.474;2022-08-07T01:50:04;1.52;;;1.33;;
44606;SDS011;30315;46.072;14.474;2022-08-07T01:52:31;1.60;;;1.30;;
44606;SDS011;30315;46.072;14.474;2022-08-07T01:55:02;1.52;;;1.42;;
44606;SDS011;30315;46.072;14.474;2022-08-07T01:57:36;1.30;;;1.30;;
44606;SDS011;30315;46.072;14.474;2022-08-07T02:00:26;1.80;;;1.70;;
44606;SDS011;30315;46.072;14.474;2022-08-07T02:03:00;3.90;;;1.95;;
44606;SDS011;30315;46.072;14.474;2022-08-07T02:05:53;1.55;;;1.45;;
44606;SDS011;30315;46.072;14.474;2022-08-07T02:08:31;2.72;;;1.30;;
44606;SDS011;30315;46.072;14.474;2022-08-07T02:13:53;1.40;;;1.30;;
44606;SDS011;30315;46.072;14.474;2022-08-07T02:16:29;2.33;;;1.40;;
44606;SDS011;30315;46.072;14.474;2022-08-07T02:19:03;1.75;;;1.55;;
44606;SDS011;30315;46.072;14.474;2022-08-07T02:21:53;4.10;;;1.50;;
44606;SDS011;30315;46.072;14.474;2022-08-07T02:24:24;2.00;;;1.52;;
44606;SDS011;30315;46.072;14.474;2022-08-07T02:26:55;3.15;;;1.40;;
44606;SDS011;30315;46.072;14.474;2022-08-07T02:29:28;1.55;;;1.45;;
44606;SDS011;30315;46.072;14.474;2022-08-07T02:31:58;1.95;;;1.67;;
44606;SDS011;30315;46.072;14.474;2022-08-07T02:34:29;1.50;;;1.23;;
44606;SDS011;30315;46.072;14.474;2022-08-07T02:37:01;1.50;;;1.40;;
44606;SDS011;30315;46.072;14.474;2022-08-07T02:39:35;2.10;;;1.60;;
44606;SDS011;30315;46.072;14.474;2022-08-07T02:42:13;1.67;;;1.57;;
44606;SDS011;30315;46.072;14.474;2022-08-07T02:44:45;1.80;;;1.70;;
44606;SDS011;30315;46.072;14.474;2022-08-07T02:47:20;1.92;;;1.83;;
44606;SDS011;30315;46.072;14.474;2022-08-07T02:50:12;1.52;;;1.42;;
44606;SDS011;30315;46.072;14.474;2022-08-07T02:52:41;2.50;;;1.90;;
44606;SDS011;30315;46.072;14.474;2022-08-07T02:55:17;1.75;;;1.65;;
44606;SDS011;30315;46.072;14.474;2022-08-07T02:58:09;1.60;;;1.50;;
44606;SDS011;30315;46.072;14.474;2022-08-07T03:00:40;1.92;;;1.63;;
44606;SDS011;30315;46.072;14.474;2022-08-07T03:03:15;2.08;;;1.73;;
44606;SDS011;30315;46.072;14.474;2022-08-07T03:05:50;1.70;;;1.60;;
44606;SDS011;30315;46.072;14.474;2022-08-07T03:08:19;3.15;;;1.75;;
44606;SDS011;30315;46.072;14.474;2022-08-07T03:10:56;2.00;;;1.85;;
44606;SDS011;30315;46.072;14.474;2022-08-07T03:13:30;1.70;;;1.60;;
44606;SDS011;30315;46.072;14.474;2022-08-07T03:16:07;1.70;;;1.60;;
44606;SDS011;30315;46.072;14.474;2022-08-07T03:18:36;2.00;;;1.90;;
44606;SDS011;30315;46.072;14.474;2022-08-07T03:21:05;1.80;;;1.70;;
44606;SDS011;30315;46.072;14.474;2022-08-07T03:23:36;2.15;;;1.83;;
44606;SDS011;30315;46.072;14.474;2022-08-07T03:26:30;2.25;;;2.10;;
44606;SDS011;30315;46.072;14.474;2022-08-07T03:29:05;1.90;;;1.80;;
44606;SDS011;30315;46.072;14.474;2022-08-07T03:31:37;1.90;;;1.80;;
44606;SDS011;30315;46.072;14.474;2022-08-07T03:34:13;2.80;;;1.83;;
44606;SDS011;30315;46.072;14.474;2022-08-07T03:36:52;2.20;;;1.90;;
44606;SDS011;30315;46.072;14.474;2022-08-07T03:39:23;1.90;;;1.80;;
44606;SDS011;30315;46.072;14.474;2022-08-07T03:42:14;2.00;;;1.90;;
44606;SDS011;30315;46.072;14.474;2022-08-07T03:44:50;1.90;;;1.80;;
44606;SDS011;30315;46.072;14.474;2022-08-07T03:47:28;1.70;;;1.60;;
44606;SDS011;30315;46.072;14.474;2022-08-07T03:50:18;2.05;;;1.95;;
44606;SDS011;30315;46.072;14.474;2022-08-07T03:52:51;1.80;;;1.70;;
44606;SDS011;30315;46.072;14.474;2022-08-07T03:55:20;2.42;;;2.00;;
44606;SDS011;30315;46.072;14.474;2022-08-07T03:57:47;2.20;;;2.10;;
44606;SDS011;30315;46.072;14.474;2022-08-07T04:03:18;2.03;;;1.92;;
44606;SDS011;30315;46.072;14.474;2022-08-07T04:05:48;2.10;;;2.00;;
44606;SDS011;30315;46.072;14.474;2022-08-07T04:08:19;2.17;;;1.85;;
44606;SDS011;30315;46.072;14.474;2022-08-07T04:10:49;1.90;;;1.80;;
44606;SDS011;30315;46.072;14.474;2022-08-07T04:13:40;2.13;;;1.95;;
44606;SDS011;30315;46.072;14.474;2022-08-07T04:16:32;2.45;;;2.25;;
44606;SDS011;30315;46.072;14.474;2022-08-07T04:19:09;2.10;;;2.00;;
44606;SDS011;30315;46.072;14.474;2022-08-07T04:21:44;2.85;;;2.60;;
44606;SDS011;30315;46.072;14.474;2022-08-07T04:24:28;2.30;;;2.20;;
44606;SDS011;30315;46.072;14.474;2022-08-07T04:27:06;2.00;;;1.90;;
44606;SDS011;30315;46.072;14.474;2022-08-07T04:29:57;2.20;;;2.05;;
44606;SDS011;30315;46.072;14.474;2022-08-07T04:32:54;2.22;;;2.13;;
44606;SDS011;30315;46.072;14.474;2022-08-07T04:35:28;2.40;;;2.20;;
44606;SDS011;30315;46.072;14.474;2022-08-07T04:38:06;2.28;;;2.17;;
44606;SDS011;30315;46.072;14.474;2022-08-07T04:40:41;1.90;;;1.80;;
44606;SDS011;30315;46.072;14.474;2022-08-07T04:43:30;2.13;;;2.03;;
44606;SDS011;30315;46.072;14.474;2022-08-07T04:52:40;3.10;;;2.20;;
44606;SDS011;30315;46.072;14.474;2022-08-07T04:58:49;4.70;;;1.83;;
44606;SDS011;30315;46.072;14.474;2022-08-07T05:01:45;2.35;;;2.25;;
44606;SDS011;30315;46.072;14.474;2022-08-07T05:07:54;3.60;;;2.03;;
44606;SDS011;30315;46.072;14.474;2022-08-07T05:10:28;2.25;;;2.15;;
44606;SDS011;30315;46.072;14.474;2022-08-07T05:15:52;2.40;;;2.20;;
44606;SDS011;30315;46.072;14.474;2022-08-07T05:18:24;2.15;;;2.05;;
44606;SDS011;30315;46.072;14.474;2022-08-07T05:21:07;1.95;;;1.85;;
44606;SDS011;30315;46.072;14.474;2022-08-07T05:23:41;2.05;;;1.90;;
44606;SDS011;30315;46.072;14.474;2022-08-07T05:26:11;2.95;;;2.08;;
44606;SDS011;30315;46.072;14.474;2022-08-07T05:28:55;2.38;;;2.22;;
44606;SDS011;30315;46.072;14.474;2022-08-07T05:31:32;2.00;;;1.90;;
44606;SDS011;30315;46.072;14.474;2022-08-07T05:34:10;1.92;;;1.83;;
44606;SDS011;30315;46.072;14.474;2022-08-07T05:36:45;2.08;;;1.98;;
44606;SDS011;30315;46.072;14.474;2022-08-07T05:39:38;2.28;;;1.75;;
44606;SDS011;30315;46.072;14.474;2022-08-07T05:42:26;1.77;;;1.67;;
44606;SDS011;30315;46.072;14.474;2022-08-07T05:45:05;2.00;;;1.90;;
44606;SDS011;30315;46.072;14.474;2022-08-07T05:47:56;1.90;;;1.80;;
44606;SDS011;30315;46.072;14.474;2022-08-07T05:50:46;2.00;;;1.90;;
44606;SDS011;30315;46.072;14.474;2022-08-07T05:53:18;6.25;;;2.30;;
44606;SDS011;30315;46.072;14.474;2022-08-07T05:56:07;2.65;;;1.90;;
44606;SDS011;30315;46.072;14.474;2022-08-07T05:58:42;1.98;;;1.88;;
44606;SDS011;30315;46.072;14.474;2022-08-07T06:01:20;2.35;;;2.20;;
44606;SDS011;30315;46.072;14.474;2022-08-07T06:03:53;2.60;;;2.40;;
44606;SDS011;30315;46.072;14.474;2022-08-07T06:06:32;2.65;;;2.10;;
44606;SDS011;30315;46.072;14.474;2022-08-07T06:09:03;1.90;;;1.80;;
44606;SDS011;30315;46.072;14.474;2022-08-07T06:11:40;2.30;;;2.20;;
44606;SDS011;30315;46.072;14.474;2022-08-07T06:14:14;2.25;;;2.05;;
44606;SDS011;30315;46.072;14.474;2022-08-07T06:16:52;2.13;;;1.92;;
44606;SDS011;30315;46.072;14.474;2022-08-07T06:19:27;2.50;;;2.30;;
44606;SDS011;30315;46.072;14.474;2022-08-07T06:22:16;3.75;;;2.20;;
44606;SDS011;30315;46.072;14.474;2022-08-07T06:24:59;1.90;;;1.80;;
44606;SDS011;30315;46.072;14.474;2022-08-07T06:30:16;2.20;;;2.00;;
44606;SDS011;30315;46.072;14.474;2022-08-07T06:33:05;2.50;;;2.38;;
44606;SDS011;30315;46.072;14.474;2022-08-07T06:35:42;2.30;;;1.83;;
44606;SDS011;30315;46.072;14.474;2022-08-07T06:38:14;2.53;;;2.10;;
44606;SDS011;30315;46.072;14.474;2022-08-07T06:40:49;2.22;;;2.13;;
44606;SDS011;30315;46.072;14.474;2022-08-07T06:43:20;2.15;;;2.05;;
44606;SDS011;30315;46.072;14.474;2022-08-07T06:46:09;3.23;;;2.80;;
44606;SDS011;30315;46.072;14.474;2022-08-07T06:48:38;2.30;;;2.20;;
44606;SDS011;30315;46.072;14.474;2022-08-07T06:51:16;2.67;;;2.35;;
44606;SDS011;30315;46.072;14.474;2022-08-07T06:54:00;2.25;;;2.15;;
44606;SDS011;30315;46.072;14.474;2022-08-07T06:56:50;2.08;;;1.77;;
44606;SDS011;30315;46.072;14.474;2022-08-07T06:59:29;1.77;;;1.67;;
44606;SDS011;30315;46.072;14.474;2022-08-07T07:02:21;1.75;;;1.65;;
44606;SDS011;30315;46.072;14.474;2022-08-07T07:05:10;2.10;;;2.00;;
44606;SDS011;30315;46.072;14.474;2022-08-07T07:07:38;1.70;;;1.60;;
44606;SDS011;30315;46.072;14.474;2022-08-07T07:10:31;2.00;;;1.90;;
44606;SDS011;30315;46.072;14.474;2022-08-07T07:13:10;2.63;;;2.45;;
44606;SDS011;30315;46.072;14.474;2022-08-07T07:15:40;2.20;;;2.10;;
44606;SDS011;30315;46.072;14.474;2022-08-07T07:21:18;2.22;;;1.75;;
44606;SDS011;30315;46.072;14.474;2022-08-07T07:24:05;2.20;;;2.10;;
44606;SDS011;30315;46.072;14.474;2022-08-07T07:26:38;2.45;;;2.25;;
44606;SDS011;30315;46.072;14.474;2022-08-07T07:32:07;2.10;;;2.00;;
44606;SDS011;30315;46.072;14.474;2022-08-07T07:34:50;2.08;;;1.98;;
44606;SDS011;30315;46.072;14.474;2022-08-07T07:37:22;3.13;;;2.42;;
44606;SDS011;30315;46.072;14.474;2022-08-07T07:40:13;2.58;;;2.38;;
44606;SDS011;30315;46.072;14.474;2022-08-07T07:42:43;2.28;;;2.17;;
44606;SDS011;30315;46.072;14.474;2022-08-07T07:45:20;2.40;;;2.20;;
44606;SDS011;30315;46.072;14.474;2022-08-07T07:48:11;2.78;;;2.20;;
44606;SDS011;30315;46.072;14.474;2022-08-07T07:51:01;2.33;;;1.60;;
44606;SDS011;30315;46.072;14.474;2022-08-07T07:53:37;1.90;;;1.80;;
44606;SDS011;30315;46.072;14.474;2022-08-07T07:56:19;1.58;;;1.50;;
44606;SDS011;30315;46.072;14.474;2022-08-07T07:58:57;2.17;;;2.03;;
44606;SDS011;30315;46.072;14.474;2022-08-07T08:01:27;2.17;;;2.08;;
44606;SDS011;30315;46.072;14.474;2022-08-07T08:04:17;2.20;;;2.10;;
44606;SDS011;30315;46.072;14.474;2022-08-07T08:06:51;1.80;;;1.70;;
44606;SDS011;30315;46.072;14.474;2022-08-07T08:09:21;2.35;;;2.15;;
44606;SDS011;30315;46.072;14.474;2022-08-07T08:11:55;2.00;;;1.90;;
44606;SDS011;30315;46.072;14.474;2022-08-07T08:14:31;2.17;;;1.90;;
44606;SDS011;30315;46.072;14.474;2022-08-07T08:17:02;2.42;;;2.33;;
44606;SDS011;30315;46.072;14.474;2022-08-07T08:19:52;1.90;;;1.80;;
44606;SDS011;30315;46.072;14.474;2022-08-07T08:22:45;2.78;;;2.30;;
44606;SDS011;30315;46.072;14.474;2022-08-07T08:25:35;2.10;;;2.00;;
44606;SDS011;30315;46.072;14.474;2022-08-07T08:28:26;1.85;;;1.75;;
44606;SDS011;30315;46.072;14.474;2022-08-07T08:31:05;1.98;;;1.88;;
44606;SDS011;30315;46.072;14.474;2022-08-07T08:33:42;2.10;;;1.90;;
44606;SDS011;30315;46.072;14.474;2022-08-07T08:36:15;2.00;;;1.90;;
44606;SDS011;30315;46.072;14.474;2022-08-07T08:38:55;2.13;;;2.03;;
44606;SDS011;30315;46.072;14.474;2022-08-07T08:44:35;2.10;;;2.00;;
44606;SDS011;30315;46.072;14.474;2022-08-07T08:53:08;2.30;;;2.10;;
44606;SDS011;30315;46.072;14.474;2022-08-07T08:55:47;2.15;;;2.05;;
44606;SDS011;30315;46.072;14.474;2022-08-07T09:01:15;1.90;;;1.80;;
44606;SDS011;30315;46.072;14.474;2022-08-07T09:06:36;2.10;;;2.00;;
44606;SDS011;30315;46.072;14.474;2022-08-07T09:27:33;1.80;;;1.70;;
44606;SDS011;30315;46.072;14.474;2022-08-07T09:54:17;1.70;;;1.60;;
44606;SDS011;30315;46.072;14.474;2022-08-07T10:05:54;2.20;;;2.10;;
44606;SDS011;30315;46.072;14.474;2022-08-07T10:17:45;2.17;;;2.00;;
44606;SDS011;30315;46.072;14.474;2022-08-07T10:23:33;2.08;;;1.98;;
44606;SDS011;30315;46.072;14.474;2022-08-07T10:32:45;2.72;;;1.90;;
44606;SDS011;30315;46.072;14.474;2022-08-07T10:39:09;2.08;;;1.60;;
44606;SDS011;30315;46.072;14.474;2022-08-07T10:45:16;2.60;;;2.40;;
44606;SDS011;30315;46.072;14.474;2022-08-07T10:48:28;1.90;;;1.80;;
44606;SDS011;30315;46.072;14.474;2022-08-07T10:57:14;2.05;;;1.95;;
44606;SDS011;30315;46.072;14.474;2022-08-07T11:00:05;1.70;;;1.60;;
44606;SDS011;30315;46.072;14.474;2022-08-07T11:02:59;2.05;;;1.95;;
44606;SDS011;30315;46.072;14.474;2022-08-07T11:11:26;4.82;;;2.42;;
44606;SDS011;30315;46.072;14.474;2022-08-07T11:14:35;2.00;;;1.90;;
44606;SDS011;30315;46.072;14.474;2022-08-07T11:17:32;2.55;;;1.90;;
44606;SDS011;30315;46.072;14.474;2022-08-07T11:20:23;2.15;;;2.05;;
44606;SDS011;30315;46.072;14.474;2022-08-07T11:23:21;2.10;;;2.00;;
44606;SDS011;30315;46.072;14.474;2022-08-07T11:26:10;2.35;;;2.17;;
44606;SDS011;30315;46.072;14.474;2022-08-07T11:28:50;2.85;;;2.55;;
44606;SDS011;30315;46.072;14.474;2022-08-07T11:32:14;1.88;;;1.77;;
44606;SDS011;30315;46.072;14.474;2022-08-07T11:35:08;2.70;;;2.22;;
44606;SDS011;30315;46.072;14.474;2022-08-07T11:44:13;2.10;;;2.00;;
44606;SDS011;30315;46.072;14.474;2022-08-07T12:16:16;2.10;;;2.00;;
44606;SDS011;30315;46.072;14.474;2022-08-07T12:36:52;2.30;;;1.80;;
44606;SDS011;30315;46.072;14.474;2022-08-07T12:43:54;1.92;;;1.83;;
44606;SDS011;30315;46.072;14.474;2022-08-07T12:49:34;1.77;;;1.67;;
44606;SDS011;30315;46.072;14.474;2022-08-07T12:52:26;1.75;;;1.65;;
44606;SDS011;30315;46.072;14.474;2022-08-07T12:55:01;2.00;;;1.90;;
44606;SDS011;30315;46.072;14.474;2022-08-07T12:57:43;1.80;;;1.70;;
44606;SDS011;30315;46.072;14.474;2022-08-07T13:01:12;1.67;;;1.58;;
44606;SDS011;30315;46.072;14.474;2022-08-07T13:03:30;1.60;;;1.50;;
44606;SDS011;30315;46.072;14.474;2022-08-07T13:21:03;2.47;;;1.75;;
44606;SDS011;30315;46.072;14.474;2022-08-07T13:38:28;1.92;;;1.83;;
44606;SDS011;30315;46.072;14.474;2022-08-07T13:41:11;1.58;;;1.48;;
44606;SDS011;30315;46.072;14.474;2022-08-07T13:43:59;1.67;;;1.58;;
44606;SDS011;30315;46.072;14.474;2022-08-07T13:46:36;1.55;;;1.45;;
44606;SDS011;30315;46.072;14.474;2022-08-07T13:49:16;1.88;;;1.77;;
44606;SDS011;30315;46.072;14.474;2022-08-07T13:52:05;1.77;;;1.67;;
44606;SDS011;30315;46.072;14.474;2022-08-07T13:54:56;2.17;;;1.53;;
44606;SDS011;30315;46.072;14.474;2022-08-07T13:57:26;2.08;;;1.88;;
44606;SDS011;30315;46.072;14.474;2022-08-07T14:00:04;2.00;;;1.90;;
44606;SDS011;30315;46.072;14.474;2022-08-07T14:02:54;1.88;;;1.77;;
44606;SDS011;30315;46.072;14.474;2022-08-07T14:08:02;1.90;;;1.80;;
44606;SDS011;30315;46.072;14.474;2022-08-07T14:10:34;2.05;;;1.95;;
44606;SDS011;30315;46.072;14.474;2022-08-07T14:13:07;2.10;;;1.95;;
44606;SDS011;30315;46.072;14.474;2022-08-07T14:16:00;1.90;;;1.80;;
44606;SDS011;30315;46.072;14.474;2022-08-07T14:18:44;2.00;;;1.80;;
44606;SDS011;30315;46.072;14.474;2022-08-07T14:21:26;1.90;;;1.80;;
44606;SDS011;30315;46.072;14.474;2022-08-07T14:27:02;1.80;;;1.70;;
44606;SDS011;30315;46.072;14.474;2022-08-07T14:30:03;1.88;;;1.70;;
44606;SDS011;30315;46.072;14.474;2022-08-07T14:32:41;1.65;;;1.55;;
44606;SDS011;30315;46.072;14.474;2022-08-07T14:35:30;1.48;;;1.48;;
44606;SDS011;30315;46.072;14.474;2022-08-07T14:38:13;1.77;;;1.67;;
44606;SDS011;30315;46.072;14.474;2022-08-07T14:41:17;1.80;;;1.70;;
44606;SDS011;30315;46.072;14.474;2022-08-07T14:44:12;2.00;;;1.90;;
44606;SDS011;30315;46.072;14.474;2022-08-07T14:46:42;2.42;;;1.90;;
44606;SDS011;30315;46.072;14.474;2022-08-07T14:49:31;1.92;;;1.83;;
44606;SDS011;30315;46.072;14.474;2022-08-07T14:52:20;1.80;;;1.70;;
44606;SDS011;30315;46.072;14.474;2022-08-07T14:55:09;1.85;;;1.75;;
44606;SDS011;30315;46.072;14.474;2022-08-07T14:57:45;2.30;;;2.20;;
44606;SDS011;30315;46.072;14.474;2022-08-07T15:00:27;2.40;;;2.20;;
44606;SDS011;30315;46.072;14.474;2022-08-07T15:03:01;2.33;;;2.22;;
44606;SDS011;30315;46.072;14.474;2022-08-07T15:05:51;2.10;;;2.00;;
44606;SDS011;30315;46.072;14.474;2022-08-07T15:08:33;2.33;;;2.22;;
44606;SDS011;30315;46.072;14.474;2022-08-07T15:11:24;2.53;;;2.33;;
44606;SDS011;30315;46.072;14.474;2022-08-07T15:14:21;2.33;;;2.22;;
44606;SDS011;30315;46.072;14.474;2022-08-07T15:16:57;2.40;;;2.30;;
44606;SDS011;30315;46.072;14.474;2022-08-07T15:19:32;2.15;;;2.05;;
44606;SDS011;30315;46.072;14.474;2022-08-07T15:22:23;2.80;;;2.60;;
44606;SDS011;30315;46.072;14.474;2022-08-07T15:25:05;2.78;;;2.50;;
44606;SDS011;30315;46.072;14.474;2022-08-07T15:27:44;2.08;;;1.88;;
44606;SDS011;30315;46.072;14.474;2022-08-07T15:30:34;2.10;;;2.00;;
44606;SDS011;30315;46.072;14.474;2022-08-07T15:33:21;2.00;;;1.90;;
44606;SDS011;30315;46.072;14.474;2022-08-07T15:35:59;2.22;;;2.13;;
44606;SDS011;30315;46.072;14.474;2022-08-07T15:38:49;2.17;;;2.08;;
44606;SDS011;30315;46.072;14.474;2022-08-07T15:41:25;2.38;;;2.17;;
44606;SDS011;30315;46.072;14.474;2022-08-07T15:44:16;2.03;;;1.92;;
44606;SDS011;30315;46.072;14.474;2022-08-07T15:46:46;2.30;;;2.20;;
44606;SDS011;30315;46.072;14.474;2022-08-07T15:49:23;3.15;;;2.30;;
44606;SDS011;30315;46.072;14.474;2022-08-07T15:52:18;2.10;;;2.00;;
44606;SDS011;30315;46.072;14.474;2022-08-07T15:54:57;2.35;;;2.15;;
44606;SDS011;30315;46.072;14.474;2022-08-07T15:57:28;2.30;;;2.10;;
44606;SDS011;30315;46.072;14.474;2022-08-07T16:00:13;2.45;;;2.22;;
44606;SDS011;30315;46.072;14.474;2022-08-07T16:03:03;2.17;;;2.08;;
44606;SDS011;30315;46.072;14.474;2022-08-07T16:05:49;2.50;;;2.30;;
44606;SDS011;30315;46.072;14.474;2022-08-07T16:08:18;4.20;;;3.90;;
44606;SDS011;30315;46.072;14.474;2022-08-07T16:11:07;2.35;;;2.25;;
44606;SDS011;30315;46.072;14.474;2022-08-07T16:16:33;2.92;;;2.08;;
44606;SDS011;30315;46.072;14.474;2022-08-07T16:19:22;2.58;;;2.33;;
44606;SDS011;30315;46.072;14.474;2022-08-07T16:34:41;2.80;;;2.60;;
44606;SDS011;30315;46.072;14.474;2022-08-07T16:43:02;2.60;;;2.40;;
44606;SDS011;30315;46.072;14.474;2022-08-07T17:07:46;2.70;;;2.50;;
44606;SDS011;30315;46.072;14.474;2022-08-07T17:16:26;4.65;;;2.60;;
44606;SDS011;30315;46.072;14.474;2022-08-07T17:22:25;3.10;;;2.85;;
44606;SDS011;30315;46.072;14.474;2022-08-07T17:28:11;3.03;;;2.63;;
44606;SDS011;30315;46.072;14.474;2022-08-07T17:30:47;3.13;;;2.55;;
44606;SDS011;30315;46.072;14.474;2022-08-07T17:33:25;4.60;;;2.60;;
44606;SDS011;30315;46.072;14.474;2022-08-07T17:36:19;2.70;;;2.60;;
44606;SDS011;30315;46.072;14.474;2022-08-07T17:44:49;3.22;;;2.88;;
44606;SDS011;30315;46.072;14.474;2022-08-07T17:50:21;2.78;;;2.60;;
44606;SDS011;30315;46.072;14.474;2022-08-07T17:53:08;3.05;;;2.72;;
44606;SDS011;30315;46.072;14.474;2022-08-07T17:56:02;2.88;;;2.67;;
44606;SDS011;30315;46.072;14.474;2022-08-07T18:01:27;4.35;;;2.92;;
44606;SDS011;30315;46.072;14.474;2022-08-07T18:09:54;2.50;;;2.38;;
44606;SDS011;30315;46.072;14.474;2022-08-07T18:12:53;2.28;;;2.17;;
44606;SDS011;30315;46.072;14.474;2022-08-07T18:18:31;2.50;;;2.40;;
44606;SDS011;30315;46.072;14.474;2022-08-07T18:21:25;2.35;;;2.25;;
44606;SDS011;30315;46.072;14.474;2022-08-07T18:30:08;2.97;;;2.78;;
44606;SDS011;30315;46.072;14.474;2022-08-07T18:36:16;3.28;;;2.70;;
44606;SDS011;30315;46.072;14.474;2022-08-07T18:39:13;2.50;;;2.40;;
44606;SDS011;30315;46.072;14.474;2022-08-07T18:45:23;2.72;;;2.63;;
44606;SDS011;30315;46.072;14.474;2022-08-07T18:48:29;4.07;;;2.90;;
44606;SDS011;30315;46.072;14.474;2022-08-07T18:51:45;3.28;;;3.00;;
44606;SDS011;30315;46.072;14.474;2022-08-07T19:00:11;3.42;;;2.78;;
44606;SDS011;30315;46.072;14.474;2022-08-07T19:05:38;2.70;;;2.50;;
44606;SDS011;30315;46.072;14.474;2022-08-07T19:11:07;3.58;;;2.75;;
44606;SDS011;30315;46.072;14.474;2022-08-07T19:16:48;3.35;;;2.50;;
44606;SDS011;30315;46.072;14.474;2022-08-07T19:19:48;3.50;;;2.80;;
44606;SDS011;30315;46.072;14.474;2022-08-07T19:23:06;2.85;;;2.65;;
44606;SDS011;30315;46.072;14.474;2022-08-07T19:25:29;3.10;;;2.83;;
44606;SDS011;30315;46.072;14.474;2022-08-07T19:28:26;3.55;;;2.70;;
44606;SDS011;30315;46.072;14.474;2022-08-07T19:31:24;2.92;;;2.72;;
44606;SDS011;30315;46.072;14.474;2022-08-07T19:34:17;4.60;;;4.28;;
44606;SDS011;30315;46.072;14.474;2022-08-07T19:37:01;6.22;;;5.82;;
44606;SDS011;30315;46.072;14.474;2022-08-07T19:39:44;6.70;;;6.20;;
44606;SDS011;30315;46.072;14.474;2022-08-07T19:42:27;4.03;;;3.83;;
44606;SDS011;30315;46.072;14.474;2022-08-07T19:45:05;3.67;;;2.90;;
44606;SDS011;30315;46.072;14.474;2022-08-07T19:48:00;2.78;;;2.58;;
44606;SDS011;30315;46.072;14.474;2022-08-07T19:50:43;3.38;;;2.95;;
44606;SDS011;30315;46.072;14.474;2022-08-07T19:53:19;4.70;;;2.70;;
44606;SDS011;30315;46.072;14.474;2022-08-07T19:56:12;2.53;;;2.42;;
44606;SDS011;30315;46.072;14.474;2022-08-07T19:59:00;2.67;;;2.47;;
44606;SDS011;30315;46.072;14.474;2022-08-07T20:01:32;2.80;;;2.60;;
44606;SDS011;30315;46.072;14.474;2022-08-07T20:04:20;3.38;;;2.60;;
44606;SDS011;30315;46.072;14.474;2022-08-07T20:06:57;3.20;;;3.00;;
44606;SDS011;30315;46.072;14.474;2022-08-07T20:09:25;3.35;;;3.15;;
44606;SDS011;30315;46.072;14.474;2022-08-07T20:12:14;4.00;;;3.60;;
44606;SDS011;30315;46.072;14.474;2022-08-07T20:15:00;3.65;;;3.45;;
44606;SDS011;30315;46.072;14.474;2022-08-07T20:17:47;3.10;;;2.90;;
44606;SDS011;30315;46.072;14.474;2022-08-07T20:20:29;3.03;;;2.75;;
44606;SDS011;30315;46.072;14.474;2022-08-07T20:23:03;3.00;;;2.78;;
44606;SDS011;30315;46.072;14.474;2022-08-07T20:25:53;4.15;;;3.17;;
44606;SDS011;30315;46.072;14.474;2022-08-07T20:28:22;2.90;;;2.70;;
44606;SDS011;30315;46.072;14.474;2022-08-07T20:30:55;3.33;;;3.03;;
44606;SDS011;30315;46.072;14.474;2022-08-07T20:33:26;3.10;;;2.85;;
44606;SDS011;30315;46.072;14.474;2022-08-07T20:38:32;3.83;;;2.45;;
44606;SDS011;30315;46.072;14.474;2022-08-07T20:41:28;2.70;;;2.50;;
44606;SDS011;30315;46.072;14.474;2022-08-07T20:44:03;2.65;;;2.45;;
44606;SDS011;30315;46.072;14.474;2022-08-07T20:46:38;2.10;;;2.00;;
44606;SDS011;30315;46.072;14.474;2022-08-07T20:49:10;2.55;;;2.35;;
44606;SDS011;30315;46.072;14.474;2022-08-07T20:52:00;2.78;;;2.58;;
44606;SDS011;30315;46.072;14.474;2022-08-07T20:54:41;2.22;;;2.13;;
44606;SDS011;30315;46.072;14.474;2022-08-07T20:57:23;2.63;;;2.42;;
44606;SDS011;30315;46.072;14.474;2022-08-07T20:59:55;3.22;;;2.10;;
44606;SDS011;30315;46.072;14.474;2022-08-07T21:02:36;2.00;;;1.90;;
44606;SDS011;30315;46.072;14.474;2022-08-07T21:05:38;2.40;;;2.30;;
44606;SDS011;30315;46.072;14.474;2022-08-07T21:08:35;2.40;;;2.20;;
44606;SDS011;30315;46.072;14.474;2022-08-07T21:11:14;2.20;;;2.10;;
44606;SDS011;30315;46.072;14.474;2022-08-07T21:13:48;1.95;;;1.85;;
44606;SDS011;30315;46.072;14.474;2022-08-07T21:16:38;2.33;;;2.13;;
44606;SDS011;30315;46.072;14.474;2022-08-07T21:19:25;2.40;;;2.20;;
44606;SDS011;30315;46.072;14.474;2022-08-07T21:22:17;1.75;;;1.65;;
44606;SDS011;30315;46.072;14.474;2022-08-07T21:25:25;3.70;;;2.13;;
44606;SDS011;30315;46.072;14.474;2022-08-07T21:31:12;2.13;;;1.98;;
44606;SDS011;30315;46.072;14.474;2022-08-07T21:34:31;2.10;;;1.98;;